createdAt,value
2022-10-05T00:02:20.567Z,71.06
2022-10-05T00:04:49.117Z,71.21
2022-10-05T00:07:18.789Z,71.20
2022-10-05T00:09:56.969Z,71.27
2022-10-05T00:12:24.801Z,71.23
2022-10-05T00:14:55.435Z,71.12
2022-10-05T00:17:30.453Z,71.16
2022-10-05T00:19:57.482Z,71.07
2022-10-05T00:22:30.052Z,71.06
2022-10-05T00:25:00.226Z,70.88
2022-10-05T00:27:33.036Z,70.92
2022-10-05T00:30:02.917Z,71.00
2022-10-05T00:32:29.660Z,70.94
2022-10-05T00:34:57.308Z,70.83
2022-10-05T00:37:24.069Z,70.67
2022-10-05T00:39:50.912Z,70.58
2022-10-05T00:42:37.066Z,70.59
2022-10-05T00:45:09.321Z,70.55
2022-10-05T00:47:54.375Z,70.67
2022-10-05T00:50:45.442Z,70.52
2022-10-05T00:53:22.514Z,70.56
2022-10-05T00:56:02.382Z,70.50
2022-10-05T00:58:29.061Z,70.49
2022-10-05T01:01:11.395Z,70.50
2022-10-05T01:04:08.727Z,70.56
2022-10-05T01:07:06.390Z,70.58
2022-10-05T01:09:51.290Z,70.57
2022-10-05T01:12:49.063Z,70.45
2022-10-05T01:15:27.762Z,70.57
2022-10-05T01:18:08.727Z,70.61
2022-10-05T01:20:53.371Z,70.63
2022-10-05T01:23:44.718Z,70.68
2022-10-05T01:26:14.142Z,70.58
2022-10-05T01:29:01.230Z,70.53
2022-10-05T01:31:49.216Z,70.45
2022-10-05T01:34:18.897Z,70.43
2022-10-05T01:37:22.002Z,70.48
2022-10-05T01:40:00.495Z,70.41
2022-10-05T01:42:39.152Z,70.41
2022-10-05T01:45:25.302Z,70.39
2022-10-05T01:48:04.580Z,70.41
2022-10-05T01:51:18.708Z,70.54
2022-10-05T01:54:00.557Z,70.59
2022-10-05T01:56:42.273Z,70.51
2022-10-05T01:59:36.727Z,70.51
2022-10-05T02:02:16.334Z,70.52
2022-10-05T02:05:04.421Z,70.50
2022-10-05T02:07:42.003Z,70.54
2022-10-05T02:10:31.040Z,70.55
2022-10-05T02:13:03.487Z,70.67
2022-10-05T02:15:38.628Z,70.69
2022-10-05T02:18:13.392Z,70.72
2022-10-05T02:20:42.924Z,70.68
2022-10-05T02:23:18.334Z,70.71
2022-10-05T02:25:47.638Z,70.67
2022-10-05T02:28:36.251Z,70.65
2022-10-05T02:31:08.891Z,70.77
2022-10-05T02:33:35.979Z,70.68
2022-10-05T02:36:13.286Z,70.75
2022-10-05T02:39:01.092Z,70.77
2022-10-05T02:41:33.656Z,70.83
2022-10-05T02:44:23.635Z,70.94
2022-10-05T02:47:03.581Z,70.91
2022-10-05T02:49:40.686Z,70.90
2022-10-05T02:52:13.454Z,70.95
2022-10-05T02:55:00.765Z,70.94
2022-10-05T02:57:44.001Z,70.91
2022-10-05T03:00:16.416Z,71.00
2022-10-05T03:02:55.614Z,70.92
2022-10-05T03:05:28.063Z,71.01
2022-10-05T03:08:17.811Z,71.08
2022-10-05T03:11:03.099Z,71.04
2022-10-05T03:13:48.790Z,71.20
2022-10-05T03:16:24.720Z,71.23
2022-10-05T03:19:16.327Z,71.22
2022-10-05T03:21:58.150Z,71.29
2022-10-05T03:24:39.116Z,71.25
2022-10-05T03:27:24.387Z,71.37
2022-10-05T03:30:03.511Z,71.40
2022-10-05T03:32:30.185Z,71.40
2022-10-05T03:35:01.234Z,71.40
2022-10-05T03:37:48.156Z,71.29
2022-10-05T03:40:58.794Z,71.35
2022-10-05T03:43:53.258Z,71.38
2022-10-05T03:46:22.903Z,71.55
2022-10-05T03:49:16.051Z,71.44
2022-10-05T03:51:47.260Z,71.54
2022-10-05T03:54:30.813Z,71.51
2022-10-05T03:57:09.766Z,71.54
2022-10-05T03:59:47.205Z,71.57
2022-10-05T04:02:29.996Z,71.53
2022-10-05T04:05:10.332Z,71.74
2022-10-05T04:07:46.894Z,71.71
2022-10-05T04:10:21.263Z,71.67
2022-10-05T04:13:03.077Z,71.60
2022-10-05T04:15:40.409Z,71.70
2022-10-05T04:18:20.327Z,71.67
2022-10-05T04:20:53.403Z,71.72
2022-10-05T04:23:39.746Z,71.69
2022-10-05T04:26:12.096Z,71.67
2022-10-05T04:28:44.893Z,71.75
2022-10-05T04:31:16.834Z,71.68
2022-10-05T04:33:54.290Z,71.67
2022-10-05T04:36:35.822Z,71.67
2022-10-05T04:39:14.814Z,71.58
2022-10-05T04:41:58.996Z,71.70
2022-10-05T04:45:01.797Z,71.69
2022-10-05T04:47:44.851Z,71.66
2022-10-05T04:50:32.790Z,71.67
2022-10-05T04:53:09.276Z,71.65
2022-10-05T04:56:17.747Z,71.73
2022-10-05T04:59:21.099Z,71.68
2022-10-05T05:02:15.033Z,71.82
2022-10-05T05:05:19.041Z,71.75
2022-10-05T05:07:54.820Z,71.76
2022-10-05T05:11:23.680Z,71.75
2022-10-05T05:14:00.809Z,71.83
2022-10-05T05:16:35.999Z,71.69
2022-10-05T05:19:11.528Z,71.85
2022-10-05T05:22:06.076Z,71.85
2022-10-05T05:24:32.754Z,71.80
2022-10-05T05:27:32.167Z,71.89
2022-10-05T05:30:18.261Z,71.81
2022-10-05T05:33:07.300Z,71.80
2022-10-05T05:36:01.691Z,71.79
2022-10-05T05:38:35.425Z,71.93
2022-10-05T05:41:25.074Z,71.89
2022-10-05T05:44:10.026Z,71.90
2022-10-05T05:47:02.496Z,71.90
2022-10-05T05:49:48.031Z,71.85
2022-10-05T05:52:22.370Z,71.94
2022-10-05T05:54:59.261Z,71.91
2022-10-05T05:57:43.598Z,71.88
2022-10-05T06:00:20.248Z,71.97
2022-10-05T06:03:02.100Z,71.93
2022-10-05T06:05:31.014Z,71.97
2022-10-05T06:08:25.721Z,72.03
2022-10-05T06:11:17.184Z,72.21
2022-10-05T06:13:44.472Z,72.46
2022-10-05T06:16:42.984Z,72.49
2022-10-05T06:19:16.678Z,72.67
2022-10-05T06:22:07.720Z,72.73
2022-10-05T06:24:40.668Z,72.88
2022-10-05T06:27:19.754Z,73.02
2022-10-05T06:30:11.355Z,73.06
2022-10-05T06:33:05.226Z,73.21
2022-10-05T06:35:56.969Z,73.39
2022-10-05T06:38:29.120Z,73.46
2022-10-05T06:41:08.076Z,73.52
2022-10-05T06:44:00.978Z,73.61
2022-10-05T06:46:55.692Z,73.71
2022-10-05T06:49:30.299Z,73.85
2022-10-05T06:52:21.709Z,74.05
2022-10-05T06:55:22.990Z,74.22
2022-10-05T06:58:14.393Z,74.32
2022-10-05T07:00:49.766Z,74.50
2022-10-05T07:03:28.051Z,74.68
2022-10-05T07:06:06.399Z,74.94
2022-10-05T07:08:58.314Z,75.04
2022-10-05T07:11:52.934Z,75.11
2022-10-05T07:14:35.691Z,75.05
2022-10-05T07:17:20.119Z,75.07
2022-10-05T07:20:09.132Z,75.10
2022-10-05T07:22:38.884Z,75.36
2022-10-05T07:25:28.251Z,75.36
2022-10-05T07:28:13.927Z,75.28
2022-10-05T07:30:52.741Z,75.28
2022-10-05T07:33:40.399Z,75.23
2022-10-05T07:36:32.324Z,75.21
2022-10-05T07:39:05.578Z,75.18
2022-10-05T07:41:40.321Z,75.16
2022-10-05T07:44:20.854Z,74.98
2022-10-05T07:46:55.199Z,74.94
2022-10-05T07:49:26.025Z,75.08
2022-10-05T07:52:01.782Z,75.28
2022-10-05T07:54:38.243Z,75.10
2022-10-05T07:57:25.826Z,74.89
2022-10-05T08:00:02.031Z,74.59
2022-10-05T08:02:58.395Z,74.67
2022-10-05T08:05:33.765Z,74.77
2022-10-05T08:08:23.999Z,74.51
2022-10-05T08:11:09.576Z,74.22
2022-10-05T08:13:47.658Z,74.38
2022-10-05T08:16:15.607Z,74.71
2022-10-05T08:18:51.422Z,74.78
2022-10-05T08:21:25.790Z,74.43
2022-10-05T08:24:38.968Z,74.10
2022-10-05T08:27:44.658Z,74.54
2022-10-05T08:30:14.051Z,74.31
2022-10-05T08:32:50.589Z,74.35
2022-10-05T08:35:26.568Z,74.26
2022-10-05T08:37:54.476Z,74.39
2022-10-05T08:40:39.957Z,74.15
2022-10-05T08:43:32.931Z,73.71
2022-10-05T08:46:14.005Z,73.14
2022-10-05T08:48:56.567Z,73.14
2022-10-05T08:52:05.231Z,72.68
2022-10-05T08:54:37.702Z,73.16
2022-10-05T08:57:28.976Z,73.37
2022-10-05T08:59:58.523Z,74.07
2022-10-05T09:02:45.763Z,73.53
2022-10-05T09:05:21.669Z,73.06
2022-10-05T09:08:00.647Z,72.42
2022-10-05T09:10:33.251Z,72.41
2022-10-05T09:13:21.694Z,72.61
2022-10-05T09:16:19.389Z,72.73
2022-10-05T09:19:01.156Z,72.55
2022-10-05T09:21:43.382Z,72.14
2022-10-05T09:24:12.851Z,71.54
2022-10-05T09:27:10.114Z,72.51
2022-10-05T09:29:58.435Z,71.84
2022-10-05T09:33:02.814Z,72.60
2022-10-05T09:36:15.644Z,71.04
2022-10-05T09:39:19.600Z,71.17
2022-10-05T09:42:07.812Z,70.66
2022-10-05T09:45:08.260Z,70.32
2022-10-05T09:48:05.633Z,70.03
2022-10-05T09:50:38.245Z,69.77
2022-10-05T09:53:21.822Z,69.66
2022-10-05T09:56:25.549Z,69.80
2022-10-05T09:59:20.379Z,69.78
2022-10-05T10:01:58.986Z,69.89
2022-10-05T10:05:05.267Z,69.75
2022-10-05T10:07:53.961Z,69.77
2022-10-05T10:10:29.369Z,69.89
2022-10-05T10:13:17.131Z,70.04
2022-10-05T10:16:12.130Z,69.94
2022-10-05T10:19:07.016Z,69.90
2022-10-05T10:22:18.869Z,69.89
2022-10-05T10:25:21.111Z,69.86
2022-10-05T10:28:28.103Z,69.76
2022-10-05T10:31:33.993Z,69.59
2022-10-05T10:34:36.088Z,69.63
2022-10-05T10:37:21.267Z,70.74
2022-10-05T10:40:15.000Z,69.70
2022-10-05T10:43:22.097Z,69.27
2022-10-05T10:46:10.868Z,69.22
2022-10-05T10:48:40.314Z,69.13
2022-10-05T10:51:37.532Z,69.51
2022-10-05T10:54:22.978Z,69.11
2022-10-05T10:57:15.470Z,68.87
2022-10-05T11:00:03.606Z,68.75
2022-10-05T11:03:01.377Z,68.86
2022-10-05T11:05:48.804Z,68.76
2022-10-05T11:08:34.394Z,68.32
2022-10-05T11:11:29.382Z,68.00
2022-10-05T11:14:33.633Z,67.63
2022-10-05T11:17:15.552Z,67.51
2022-10-05T11:20:19.635Z,67.33
2022-10-05T11:22:58.901Z,67.23
2022-10-05T11:25:49.805Z,67.05
2022-10-05T11:28:57.569Z,67.12
2022-10-05T11:31:52.774Z,67.12
2022-10-05T11:34:29.110Z,67.11
2022-10-05T11:36:58.825Z,67.14
2022-10-05T11:39:33.538Z,67.16
2022-10-05T11:42:19.898Z,67.17
2022-10-05T11:45:06.278Z,67.16
2022-10-05T11:48:07.315Z,67.13
2022-10-05T11:50:52.838Z,67.08
2022-10-05T11:53:40.743Z,67.11
2022-10-05T11:56:36.161Z,67.05
2022-10-05T11:59:23.413Z,67.14
2022-10-05T12:02:02.542Z,67.26
2022-10-05T12:04:41.706Z,67.23
2022-10-05T12:07:26.380Z,67.16
2022-10-05T12:10:45.793Z,67.30
2022-10-05T12:13:40.452Z,67.01
2022-10-05T12:16:25.931Z,67.00
2022-10-05T12:19:29.983Z,67.04
2022-10-05T12:22:04.157Z,66.93
2022-10-05T12:24:36.887Z,66.80
2022-10-05T12:27:12.877Z,66.64
2022-10-05T12:30:05.750Z,66.68
2022-10-05T12:32:41.504Z,66.58
2022-10-05T12:35:43.531Z,66.34
2022-10-05T12:38:28.712Z,66.23
2022-10-05T12:40:55.394Z,65.96
2022-10-05T12:43:46.925Z,65.81
2022-10-05T12:46:22.891Z,65.72
2022-10-05T12:49:10.856Z,65.61
2022-10-05T12:51:43.255Z,65.62
2022-10-05T12:54:22.089Z,65.45
2022-10-05T12:56:59.494Z,65.30
2022-10-05T12:59:44.715Z,65.13
2022-10-05T13:02:26.784Z,65.08
2022-10-05T13:05:17.858Z,65.16
2022-10-05T13:08:23.051Z,65.17
2022-10-05T13:11:01.858Z,64.98
2022-10-05T13:13:34.755Z,64.96
2022-10-05T13:16:07.673Z,64.87
2022-10-05T13:18:51.321Z,64.71
2022-10-05T13:21:32.824Z,64.79
2022-10-05T13:24:19.347Z,64.75
2022-10-05T13:27:14.299Z,64.81
2022-10-05T13:30:09.184Z,64.85
2022-10-05T13:32:41.787Z,64.91
2022-10-05T13:35:20.938Z,64.93
2022-10-05T13:38:02.859Z,64.90
2022-10-05T13:40:44.055Z,65.00
2022-10-05T13:43:44.095Z,65.00
2022-10-05T13:46:14.003Z,64.94
2022-10-05T13:49:14.773Z,65.03
2022-10-05T13:51:50.409Z,65.04
2022-10-05T13:54:27.177Z,65.11
2022-10-05T13:57:05.502Z,65.19
2022-10-05T13:59:50.895Z,65.26
2022-10-05T14:02:25.888Z,65.22
2022-10-05T14:05:00.439Z,65.34
2022-10-05T14:07:38.459Z,65.43
2022-10-05T14:10:13.858Z,65.45
2022-10-05T14:12:43.486Z,65.51
2022-10-05T14:15:30.616Z,65.52
2022-10-05T14:17:57.374Z,65.56
2022-10-05T14:20:36.532Z,65.49
2022-10-05T14:23:14.728Z,65.50
2022-10-05T14:25:53.913Z,65.49
2022-10-05T14:28:35.030Z,65.47
2022-10-05T14:31:26.585Z,65.47
2022-10-05T14:33:53.356Z,65.54
2022-10-05T14:36:40.183Z,65.58
2022-10-05T14:39:12.820Z,65.52
2022-10-05T14:41:47.703Z,65.60
2022-10-05T14:44:14.417Z,65.67
2022-10-05T14:46:54.625Z,65.70
2022-10-05T14:49:26.750Z,65.74
2022-10-05T14:51:55.809Z,65.71
2022-10-05T14:54:23.049Z,65.71
2022-10-05T14:56:54.200Z,65.73
2022-10-05T14:59:23.710Z,65.77
2022-10-05T15:02:13.924Z,65.82
2022-10-05T15:04:50.177Z,65.81
2022-10-05T15:07:28.075Z,65.84
2022-10-05T15:10:00.656Z,65.88
2022-10-05T15:12:46.764Z,65.86
2022-10-05T15:15:37.101Z,65.98
2022-10-05T15:18:17.250Z,65.94
2022-10-05T15:21:11.621Z,65.89
2022-10-05T15:23:43.176Z,65.82
2022-10-05T15:26:28.741Z,65.72
2022-10-05T15:29:29.591Z,65.80
2022-10-05T15:32:14.797Z,65.82
2022-10-05T15:34:59.768Z,65.87
2022-10-05T15:37:36.270Z,65.83
2022-10-05T15:40:06.698Z,65.98
2022-10-05T15:42:46.449Z,66.49
2022-10-05T15:45:24.304Z,66.66
2022-10-05T15:47:58.349Z,66.76
2022-10-05T15:50:55.491Z,66.90
2022-10-05T15:53:47.707Z,66.99
2022-10-05T15:56:27.513Z,67.15
2022-10-05T15:59:00.805Z,67.19
2022-10-05T16:01:33.609Z,67.34
2022-10-05T16:04:23.498Z,67.44
2022-10-05T16:07:21.090Z,67.44
2022-10-05T16:10:15.854Z,67.53
2022-10-05T16:13:07.632Z,67.25
2022-10-05T16:15:42.991Z,67.18
2022-10-05T16:18:36.367Z,67.26
2022-10-05T16:21:14.108Z,67.05
2022-10-05T16:24:18.334Z,66.99
2022-10-05T16:26:59.400Z,66.93
2022-10-05T16:29:45.890Z,66.95
2022-10-05T16:32:19.516Z,66.96
2022-10-05T16:35:04.369Z,67.01
2022-10-05T16:37:41.094Z,67.08
2022-10-05T16:40:32.295Z,67.17
2022-10-05T16:43:16.189Z,67.17
2022-10-05T16:46:02.390Z,67.31
2022-10-05T16:48:37.687Z,67.42
2022-10-05T16:51:47.422Z,67.43
2022-10-05T16:54:23.300Z,67.50
2022-10-05T16:56:59.509Z,67.56
2022-10-05T16:59:48.036Z,67.70
2022-10-05T17:02:35.351Z,67.75
2022-10-05T17:05:17.778Z,67.80
2022-10-05T17:08:03.178Z,67.82
2022-10-05T17:10:35.663Z,67.86
2022-10-05T17:13:37.518Z,67.92
2022-10-05T17:16:29.095Z,67.94
2022-10-05T17:19:43.223Z,68.00
2022-10-05T17:22:24.251Z,68.02
2022-10-05T17:24:53.602Z,68.00
2022-10-05T17:27:50.957Z,67.99
2022-10-05T17:30:31.659Z,68.03
2022-10-05T17:33:20.429Z,67.91
2022-10-05T17:36:08.550Z,67.93
2022-10-05T17:38:35.311Z,67.91
2022-10-05T17:41:19.878Z,67.86
2022-10-05T17:44:21.049Z,67.89
2022-10-05T17:46:52.045Z,67.85
2022-10-05T17:50:16.163Z,67.90
2022-10-05T17:53:02.797Z,67.81
2022-10-05T17:55:58.846Z,67.91
2022-10-05T17:58:29.075Z,67.99
2022-10-05T18:00:59.040Z,68.04
2022-10-05T18:03:33.434Z,68.09
2022-10-05T18:06:42.611Z,68.12
2022-10-05T18:09:21.059Z,68.19
2022-10-05T18:12:12.840Z,68.21
2022-10-05T18:15:06.989Z,68.27
2022-10-05T18:17:46.685Z,68.26
2022-10-05T18:20:34.961Z,68.29
2022-10-05T18:23:01.660Z,68.37
2022-10-05T18:25:51.042Z,68.39
2022-10-05T18:28:34.983Z,68.46
2022-10-05T18:31:53.128Z,68.46
2022-10-05T18:35:06.531Z,68.52
2022-10-05T18:37:47.907Z,68.59
2022-10-05T18:40:38.462Z,68.68
2022-10-05T18:43:29.592Z,68.81
2022-10-05T18:46:27.329Z,68.90
2022-10-05T18:49:19.049Z,69.02
2022-10-05T18:52:14.286Z,69.09
2022-10-05T18:55:13.343Z,69.12
2022-10-05T18:58:01.944Z,69.15
2022-10-05T19:01:02.888Z,69.24
2022-10-05T19:03:41.645Z,69.33
2022-10-05T19:06:24.966Z,69.39
2022-10-05T19:09:31.349Z,69.44
2022-10-05T19:12:07.725Z,69.58
2022-10-05T19:14:51.037Z,69.63
2022-10-05T19:17:55.773Z,69.64
2022-10-05T19:20:38.289Z,69.71
2022-10-05T19:23:13.265Z,69.77
2022-10-05T19:25:53.139Z,69.82
2022-10-05T19:28:30.792Z,69.90
2022-10-05T19:31:12.917Z,69.91
2022-10-05T19:34:16.488Z,69.95
2022-10-05T19:36:58.430Z,70.10
2022-10-05T19:39:50.203Z,70.26
2022-10-05T19:42:53.179Z,70.32
2022-10-05T19:45:26.002Z,70.31
2022-10-05T19:48:08.543Z,70.34
2022-10-05T19:50:38.794Z,70.42
2022-10-05T19:53:22.976Z,70.42
2022-10-05T19:55:49.844Z,70.44
2022-10-05T19:58:22.580Z,70.43
2022-10-05T20:01:01.651Z,70.51
2022-10-05T20:03:31.031Z,70.55
2022-10-05T20:06:03.349Z,70.56
2022-10-05T20:08:39.521Z,70.53
2022-10-05T20:11:09.101Z,70.61
2022-10-05T20:13:36.957Z,70.65
2022-10-05T20:16:31.406Z,70.65
2022-10-05T20:19:17.031Z,70.71
2022-10-05T20:21:54.164Z,70.72
2022-10-05T20:24:26.194Z,70.75
2022-10-05T20:27:12.645Z,70.83
2022-10-05T20:29:43.667Z,70.91
2022-10-05T20:32:12.189Z,70.97
2022-10-05T20:34:44.594Z,71.07
2022-10-05T20:37:13.834Z,71.20
2022-10-05T20:39:41.716Z,71.19
2022-10-05T20:42:09.653Z,71.19
2022-10-05T20:44:37.459Z,71.28
2022-10-05T20:47:05.043Z,71.28
2022-10-05T20:49:32.098Z,71.29
2022-10-05T20:51:59.191Z,71.31
2022-10-05T20:54:27.252Z,71.30
2022-10-05T20:56:55.735Z,71.29
2022-10-05T20:59:26.064Z,71.27
2022-10-05T21:01:52.968Z,71.24
2022-10-05T21:04:22.842Z,71.30
2022-10-05T21:06:49.694Z,71.33
2022-10-05T21:09:19.376Z,71.32
2022-10-05T21:11:48.826Z,71.32
2022-10-05T21:14:16.443Z,71.36
2022-10-05T21:16:43.572Z,71.44
2022-10-05T21:19:14.726Z,71.53
2022-10-05T21:21:43.614Z,71.48
2022-10-05T21:24:13.335Z,71.39
2022-10-05T21:26:44.688Z,71.38
2022-10-05T21:29:13.025Z,71.40
2022-10-05T21:31:40.490Z,71.48
2022-10-05T21:34:07.794Z,71.42
2022-10-05T21:36:35.388Z,71.41
2022-10-05T21:39:02.217Z,71.58
2022-10-05T21:41:28.954Z,71.57
2022-10-05T21:43:55.713Z,71.56
2022-10-05T21:46:26.437Z,71.62
2022-10-05T21:48:54.605Z,71.64
2022-10-05T21:51:25.072Z,71.61
2022-10-05T21:54:02.809Z,71.63
2022-10-05T21:56:34.882Z,71.73
2022-10-05T21:59:04.616Z,71.72
2022-10-05T22:01:31.458Z,71.71
2022-10-05T22:03:58.206Z,71.72
2022-10-05T22:06:25.101Z,71.71
2022-10-05T22:08:51.823Z,71.76
2022-10-05T22:11:18.705Z,71.89
2022-10-05T22:13:51.099Z,71.83
2022-10-05T22:16:21.251Z,71.81
2022-10-05T22:18:49.158Z,71.86
2022-10-05T22:21:16.616Z,71.86
2022-10-05T22:23:45.420Z,71.91
2022-10-05T22:26:15.988Z,71.92
2022-10-05T22:28:43.282Z,72.04
2022-10-05T22:31:12.560Z,72.03
2022-10-05T22:33:40.221Z,72.08
2022-10-05T22:36:08.058Z,72.11
2022-10-05T22:38:34.974Z,72.19
2022-10-05T22:41:01.767Z,72.18
2022-10-05T22:43:28.532Z,72.20
2022-10-05T22:45:56.086Z,72.16
2022-10-05T22:48:23.210Z,72.20
2022-10-05T22:50:50.167Z,72.21
2022-10-05T22:53:17.007Z,72.23
2022-10-05T22:55:43.713Z,72.36
2022-10-05T22:58:10.503Z,72.37
2022-10-05T23:00:57.089Z,72.38
2022-10-05T23:03:24.158Z,72.37
2022-10-05T23:05:57.577Z,72.32
2022-10-05T23:08:24.560Z,72.41
2022-10-05T23:10:52.609Z,72.49
2022-10-05T23:13:19.355Z,72.43
2022-10-05T23:15:46.053Z,72.47
2022-10-05T23:18:12.781Z,72.45
2022-10-05T23:20:40.251Z,72.44
2022-10-05T23:23:07.015Z,72.54
2022-10-05T23:25:33.744Z,72.59
2022-10-05T23:28:02.649Z,72.63
2022-10-05T23:30:29.657Z,72.59
2022-10-05T23:32:56.438Z,72.67
2022-10-05T23:35:23.195Z,72.68
2022-10-05T23:37:49.918Z,72.65
2022-10-05T23:40:16.725Z,72.77
2022-10-05T23:42:43.494Z,72.81
2022-10-05T23:45:11.956Z,72.83
2022-10-05T23:47:39.788Z,72.88
2022-10-05T23:50:08.252Z,72.78
2022-10-05T23:52:35.769Z,72.74
2022-10-05T23:55:04.504Z,72.85
2022-10-05T23:57:31.316Z,72.78
2022-10-05T23:59:58.094Z,72.87
